Time;durP1;ratioP1;P1;durP2;ratioP2;P2;SDS_P1;SDS_P2;PMS_P1;PMS_P2;Temp;Humidity;BMP_temperature;BMP_pressure;BME280_temperature;BME280_humidity;BME280_pressure;Samples;Min_cycle;Max_cycle;Signal;HPM_P1;HPM_P2
2024/04/23 00:01:56;;;;;;;1.57;1.40;;;4.50;98.20;;;;;;5237840;27;20548;-77
2024/04/23 00:04:22;;;;;;;1.60;1.47;;;4.50;98.20;;;;;;5246397;27;20545;-77
2024/04/23 00:06:55;;;;;;;1.50;1.40;;;4.50;98.20;;;;;;5234309;27;20711;-77
2024/04/23 00:09:24;;;;;;;1.50;1.30;;;4.50;98.20;;;;;;5242572;27;20269;-77
2024/04/23 00:11:52;;;;;;;1.50;1.30;;;4.40;98.20;;;;;;5235090;27;20547;-77
2024/04/23 00:14:18;;;;;;;1.50;1.40;;;4.40;98.20;;;;;;5247402;27;20481;-77
2024/04/23 00:16:57;;;;;;;1.50;1.30;;;4.50;98.20;;;;;;5237305;27;20560;-76
2024/04/23 00:19:23;;;;;;;1.50;1.37;;;4.40;98.20;;;;;;5244904;27;20474;-77
2024/04/23 00:21:51;;;;;;;1.53;1.40;;;4.40;98.20;;;;;;5238458;27;21182;-77
2024/04/23 00:24:17;;;;;;;1.50;1.33;;;4.40;98.20;;;;;;5245161;27;20952;-77
2024/04/23 00:26:55;;;;;;;1.60;1.50;;;4.40;98.20;;;;;;5234297;27;20600;-77
2024/04/23 00:29:21;;;;;;;1.60;1.40;;;4.50;98.20;;;;;;5243190;27;20250;-77
2024/04/23 00:31:50;;;;;;;1.50;1.40;;;4.40;98.20;;;;;;5231739;27;21176;-77
2024/04/23 00:34:15;;;;;;;1.50;1.30;;;4.50;98.20;;;;;;5245766;27;20730;-77
2024/04/23 00:36:53;;;;;;;1.60;1.40;;;4.50;98.20;;;;;;5230056;27;20611;-77
2024/04/23 00:39:19;;;;;;;1.57;1.30;;;4.50;98.20;;;;;;5239338;27;20246;-77
2024/04/23 00:41:47;;;;;;;1.60;1.50;;;4.50;98.20;;;;;;5233434;27;20616;-77
2024/04/23 00:44:16;;;;;;;1.50;1.37;;;4.50;98.20;;;;;;5244048;27;20311;-77
2024/04/23 00:46:45;;;;;;;1.63;1.53;;;4.50;98.20;;;;;;5233972;27;20500;-77
2024/04/23 00:49:13;;;;;;;1.53;1.40;;;4.50;98.20;;;;;;5244372;27;20525;-75
2024/04/23 00:51:42;;;;;;;1.60;1.50;;;4.50;98.20;;;;;;5233448;27;20509;-75
2024/04/23 00:54:09;;;;;;;1.50;1.40;;;4.50;98.20;;;;;;5247050;27;20602;-75
2024/04/23 00:56:38;;;;;;;1.60;1.50;;;4.50;98.20;;;;;;5232532;27;20557;-75
2024/04/23 00:59:06;;;;;;;1.50;1.30;;;4.50;98.20;;;;;;5246045;27;20626;-75
2024/04/23 01:01:37;;;;;;;1.53;1.40;;;4.50;98.20;;;;;;5232914;27;20996;-75
2024/04/23 01:04:05;;;;;;;1.50;1.40;;;4.50;98.20;;;;;;5248174;27;20565;-76
2024/04/23 01:06:33;;;;;;;1.60;1.47;;;4.50;98.20;;;;;;5232920;27;20564;-76
2024/04/23 01:09:00;;;;;;;1.60;1.50;;;4.50;98.20;;;;;;5236861;27;20487;-77
2024/04/23 01:11:28;;;;;;;1.50;1.30;;;4.50;98.20;;;;;;5231047;27;20500;-75
2024/04/23 01:13:54;;;;;;;1.50;1.30;;;4.50;98.20;;;;;;5249840;27;20509;-76
2024/04/23 01:16:25;;;;;;;1.50;1.40;;;4.50;98.20;;;;;;5229275;27;20496;-76
2024/04/23 01:18:55;;;;;;;1.60;1.40;;;4.60;98.20;;;;;;5249512;27;20244;-76
2024/04/23 01:21:31;;;;;;;1.50;1.30;;;4.60;98.20;;;;;;5231553;27;20496;-75
2024/04/23 01:24:00;;;;;;;1.60;1.47;;;4.60;98.20;;;;;;5250106;27;20537;-76
2024/04/23 01:26:31;;;;;;;1.60;1.47;;;4.60;98.20;;;;;;5231077;27;21086;-77
2024/04/23 01:28:57;;;;;;;1.53;1.40;;;4.60;98.20;;;;;;5246860;27;20584;-76
2024/04/23 01:31:26;;;;;;;1.50;1.30;;;4.60;98.20;;;;;;5231174;27;20512;-76
2024/04/23 01:33:54;;;;;;;1.50;1.30;;;4.60;98.20;;;;;;5251033;27;20470;-76
2024/04/23 01:36:23;;;;;;;1.50;1.30;;;4.60;98.20;;;;;;5230417;27;20508;-75
2024/04/23 01:38:49;;;;;;;1.50;1.40;;;4.50;98.20;;;;;;5248033;27;20480;-74
2024/04/23 01:41:18;;;;;;;1.50;1.30;;;4.50;98.20;;;;;;5228118;27;20560;-75
2024/04/23 01:43:46;;;;;;;1.60;1.50;;;4.50;98.20;;;;;;5252961;27;20486;-75
2024/04/23 01:46:16;;;;;;;1.53;1.40;;;4.40;98.20;;;;;;5229002;27;20508;-75
2024/04/23 01:48:42;;;;;;;1.50;1.40;;;4.40;98.20;;;;;;5246437;27;20486;-75
2024/04/23 01:51:11;;;;;;;1.57;1.40;;;4.30;98.20;;;;;;5227180;27;20583;-76
2024/04/23 01:53:37;;;;;;;1.53;1.40;;;4.30;98.20;;;;;;5255062;27;20609;-76
2024/04/23 01:56:05;;;;;;;1.50;1.40;;;4.20;98.20;;;;;;5225286;27;20482;-76
2024/04/23 01:58:31;;;;;;;1.50;1.30;;;4.10;98.20;;;;;;5253376;27;20234;-76
2024/04/23 02:01:04;;;;;;;1.57;1.30;;;4.10;98.20;;;;;;5216728;27;20668;-76
2024/04/23 02:03:31;;;;;;;1.50;1.33;;;4.00;98.20;;;;;;5256525;27;20631;-77
2024/04/23 02:06:02;;;;;;;1.60;1.40;;;4.00;98.20;;;;;;5221534;27;20580;-76
2024/04/23 02:08:27;;;;;;;1.60;1.50;;;4.00;98.20;;;;;;5251158;27;21175;-75
2024/04/23 02:10:56;;;;;;;1.50;1.40;;;3.90;98.20;;;;;;5222150;27;20490;-76
2024/04/23 02:13:22;;;;;;;1.57;1.40;;;3.90;98.20;;;;;;5257848;27;20602;-76
2024/04/23 02:15:50;;;;;;;1.50;1.40;;;3.80;98.20;;;;;;5224347;27;20602;-76
2024/04/23 02:18:18;;;;;;;1.53;1.40;;;3.80;98.20;;;;;;5255958;27;20254;-76
2024/04/23 02:20:47;;;;;;;1.60;1.50;;;3.80;98.20;;;;;;5228882;27;20478;-76
2024/04/23 02:23:13;;;;;;;1.60;1.40;;;3.70;98.20;;;;;;5221430;27;20548;-76
2024/04/23 02:25:42;;;;;;;1.60;1.40;;;3.70;98.20;;;;;;5234169;27;20485;-76
2024/04/23 02:28:08;;;;;;;1.60;1.50;;;3.70;98.20;;;;;;5247053;27;20614;-76
2024/04/23 02:30:37;;;;;;;1.50;1.30;;;3.70;98.20;;;;;;5231966;27;20466;-76
2024/04/23 02:33:04;;;;;;;1.60;1.50;;;3.60;98.20;;;;;;5247288;27;20383;-77
2024/04/23 02:35:34;;;;;;;1.57;1.40;;;3.60;98.20;;;;;;5229782;27;20474;-77
2024/04/23 02:38:00;;;;;;;1.53;1.40;;;3.60;98.20;;;;;;5250370;27;20496;-77
2024/04/23 02:40:29;;;;;;;1.60;1.40;;;3.60;98.20;;;;;;5230341;27;21095;-77
2024/04/23 02:42:54;;;;;;;1.60;1.50;;;3.60;98.20;;;;;;5247314;27;20311;-76
2024/04/23 02:45:23;;;;;;;1.57;1.40;;;3.50;98.20;;;;;;5232111;27;20466;-76
2024/04/23 02:47:48;;;;;;;1.60;1.40;;;3.50;98.20;;;;;;5246053;27;20273;-76
2024/04/23 02:50:17;;;;;;;1.53;1.43;;;3.50;98.20;;;;;;5232100;27;20559;-77
2024/04/23 02:52:45;;;;;;;1.50;1.40;;;3.50;98.20;;;;;;5245950;27;20308;-76
2024/04/23 02:55:14;;;;;;;1.60;1.47;;;3.40;98.20;;;;;;5228344;27;20483;-77
2024/04/23 02:57:41;;;;;;;1.57;1.40;;;3.40;98.20;;;;;;5269682;21;20977;-79
2024/04/23 03:00:11;;;;;;;1.73;1.63;;;3.40;98.20;;;;;;5233757;27;20490;-77
2024/04/23 03:02:37;;;;;;;1.60;1.50;;;3.40;98.20;;;;;;5247284;27;20504;-78
2024/04/23 03:05:06;;;;;;;1.60;1.43;;;3.40;98.20;;;;;;5234441;27;21051;-78
2024/04/23 03:07:32;;;;;;;1.57;1.40;;;3.30;98.20;;;;;;5246361;27;20269;-77
2024/04/23 03:10:03;;;;;;;1.57;1.40;;;3.30;98.20;;;;;;5236917;27;20799;-79
2024/04/23 03:12:29;;;;;;;1.80;1.70;;;3.30;98.20;;;;;;5248165;27;20376;-79
2024/04/23 03:14:58;;;;;;;1.57;1.30;;;3.20;98.20;;;;;;5237077;27;20478;-77
2024/04/23 03:17:23;;;;;;;1.60;1.40;;;3.20;98.20;;;;;;5245771;26;20385;-77
2024/04/23 03:19:52;;;;;;;1.60;1.40;;;3.20;98.20;;;;;;5240331;27;20474;-78
2024/04/23 03:22:19;;;;;;;1.60;1.50;;;3.10;98.20;;;;;;5225186;27;20769;-78
2024/04/23 03:24:48;;;;;;;1.80;1.70;;;3.10;98.20;;;;;;5235167;27;20471;-78
2024/04/23 03:27:16;;;;;;;1.57;1.40;;;3.10;98.20;;;;;;5236113;27;21208;-78
2024/04/23 03:29:45;;;;;;;1.50;1.40;;;3.00;98.20;;;;;;5231514;27;20600;-77
2024/04/23 03:32:11;;;;;;;1.60;1.50;;;3.00;98.20;;;;;;5210403;27;20563;-78
2024/04/23 03:34:39;;;;;;;1.60;1.50;;;3.00;98.20;;;;;;5223996;27;20533;-77
2024/04/23 03:37:07;;;;;;;1.57;1.40;;;3.00;98.20;;;;;;5229064;27;20324;-78
2024/04/23 03:39:36;;;;;;;1.60;1.50;;;3.00;98.20;;;;;;5234487;27;20543;-77
2024/04/23 03:42:04;;;;;;;1.57;1.40;;;3.00;98.20;;;;;;5237246;27;21071;-77
2024/04/23 03:44:35;;;;;;;1.57;1.40;;;3.00;98.20;;;;;;5233505;27;20533;-78
2024/04/23 03:47:04;;;;;;;1.53;1.40;;;3.00;98.20;;;;;;5225893;27;21113;-79
2024/04/23 03:49:32;;;;;;;1.60;1.47;;;3.00;98.20;;;;;;5233752;27;20485;-78
2024/04/23 03:52:05;;;;;;;1.60;1.40;;;2.90;98.20;;;;;;5239207;27;20603;-79
2024/04/23 03:54:34;;;;;;;1.60;1.50;;;2.90;98.20;;;;;;5240968;27;20528;-78
2024/04/23 03:56:59;;;;;;;1.57;1.40;;;2.90;98.20;;;;;;5220549;27;20498;-78
2024/04/23 03:59:28;;;;;;;1.70;1.60;;;2.90;98.20;;;;;;5231744;27;20514;-78
2024/04/23 04:07:24;;;;;;;1.53;1.40;;;2.80;98.20;;;;;;5245606;27;20544;-78
2024/04/23 04:09:52;;;;;;;1.57;1.40;;;2.80;98.20;;;;;;5238417;27;20617;-79
2024/04/23 04:12:21;;;;;;;1.63;1.53;;;2.80;98.20;;;;;;5241823;27;20843;-77
2024/04/23 04:14:49;;;;;;;1.60;1.50;;;2.80;98.20;;;;;;5239412;27;20601;-79
2024/04/23 04:17:20;;;;;;;1.60;1.50;;;2.70;98.20;;;;;;5243562;27;20525;-77
2024/04/23 04:19:46;;;;;;;1.53;1.40;;;2.70;98.20;;;;;;5238938;27;20545;-78
2024/04/23 04:22:14;;;;;;;1.60;1.40;;;2.70;98.20;;;;;;5240305;27;20500;-78
2024/04/23 04:24:40;;;;;;;1.60;1.40;;;2.70;98.20;;;;;;5235931;27;20496;-78
2024/04/23 04:27:08;;;;;;;1.60;1.50;;;2.60;98.20;;;;;;5238614;27;20571;-77
2024/04/23 04:29:34;;;;;;;1.70;1.60;;;2.60;98.20;;;;;;5242045;27;20242;-77
2024/04/23 04:32:03;;;;;;;1.60;1.50;;;2.60;98.20;;;;;;5239875;27;20543;-78
2024/04/23 04:34:31;;;;;;;1.57;1.40;;;2.60;98.20;;;;;;5240909;27;20265;-77
2024/04/23 04:37:00;;;;;;;1.60;1.50;;;2.60;98.20;;;;;;5239967;27;21098;-78
2024/04/23 04:39:26;;;;;;;1.60;1.50;;;2.50;98.20;;;;;;5236935;27;21646;-77
2024/04/23 04:41:54;;;;;;;1.60;1.50;;;2.50;98.20;;;;;;5236635;27;20596;-77
2024/04/23 04:44:20;;;;;;;1.60;1.50;;;2.50;98.20;;;;;;5245817;27;20571;-78
2024/04/23 04:46:51;;;;;;;1.53;1.40;;;2.50;98.20;;;;;;5237033;27;20869;-76
2024/04/23 04:49:17;;;;;;;1.57;1.40;;;2.50;98.20;;;;;;5244482;27;21106;-77
2024/04/23 04:51:48;;;;;;;1.60;1.50;;;2.50;98.20;;;;;;5237719;27;20516;-77
2024/04/23 04:54:14;;;;;;;1.70;1.60;;;2.50;98.20;;;;;;5243146;27;20542;-77
2024/04/23 04:56:42;;;;;;;1.70;1.60;;;2.50;98.20;;;;;;5236054;27;20501;-77
2024/04/23 04:59:08;;;;;;;1.60;1.50;;;2.50;98.20;;;;;;5278417;27;20733;-78
2024/04/23 05:01:37;;;;;;;1.57;1.40;;;2.50;98.20;;;;;;5266052;27;20483;-78
2024/04/23 05:04:04;;;;;;;2.03;1.93;;;2.60;98.20;;;;;;5280795;27;20242;-78
2024/04/23 05:06:33;;;;;;;1.50;1.40;;;2.60;98.20;;;;;;5264032;27;20559;-78
2024/04/23 05:09:01;;;;;;;1.60;1.50;;;2.60;98.20;;;;;;5283974;27;20485;-77
2024/04/23 05:11:30;;;;;;;1.60;1.40;;;2.60;98.20;;;;;;5263917;27;20483;-77
2024/04/23 05:13:55;;;;;;;1.57;1.40;;;2.60;98.20;;;;;;5283758;27;20540;-80
2024/04/23 05:16:24;;;;;;;1.57;1.40;;;2.60;98.20;;;;;;5269127;27;20507;-80
2024/04/23 05:18:50;;;;;;;1.57;1.40;;;2.60;98.20;;;;;;5286773;27;21730;-80
2024/04/23 05:21:19;;;;;;;1.60;1.43;;;2.70;98.20;;;;;;5266041;27;22086;-79
2024/04/23 05:23:45;;;;;;;1.60;1.50;;;2.70;98.20;;;;;;5287650;27;20521;-78
2024/04/23 05:26:16;;;;;;;1.57;1.40;;;2.80;98.20;;;;;;5264393;27;20551;-80
2024/04/23 05:28:42;;;;;;;1.53;1.40;;;2.90;98.20;;;;;;5291223;27;20400;-80
2024/04/23 05:34:09;;;;;;;1.60;1.50;;;3.20;98.20;;;;;;5222841;27;20393;-80
2024/04/23 05:36:38;;;;;;;1.73;1.63;;;3.40;98.20;;;;;;5193407;27;20495;-79
2024/04/23 05:39:06;;;;;;;1.57;1.40;;;3.50;98.20;;;;;;5240392;27;20519;-81
2024/04/23 05:41:37;;;;;;;1.57;1.30;;;3.70;98.20;;;;;;5271713;27;20610;-80
2024/04/23 05:44:06;;;;;;;1.53;1.40;;;4.00;98.20;;;;;;5286570;27;20588;-80
2024/04/23 05:46:34;;;;;;;1.57;1.40;;;4.20;98.20;;;;;;5278186;27;20591;-81
2024/04/23 05:49:43;;;;;;;1.57;1.40;;;4.40;98.20;;;;;;5289368;27;20544;-81
2024/04/23 05:52:48;;;;;;;1.60;1.50;;;4.60;98.20;;;;;;5280574;27;20506;-80
2024/04/23 05:55:34;;;;;;;1.60;1.40;;;4.90;98.20;;;;;;5277201;27;20527;-79
2024/04/23 05:58:05;;;;;;;1.60;1.40;;;5.20;98.20;;;;;;5288541;27;20496;-81
2024/04/23 06:00:32;;;;;;;1.60;1.40;;;5.50;98.20;;;;;;5267687;27;20528;-80
2024/04/23 06:03:01;;;;;;;1.60;1.47;;;5.70;98.20;;;;;;5291675;27;20499;-81
2024/04/23 06:05:27;;;;;;;1.60;1.50;;;5.90;98.20;;;;;;5277819;27;20663;-80
2024/04/23 06:07:57;;;;;;;1.53;1.30;;;6.10;98.20;;;;;;5293286;27;20495;-82
2024/04/23 06:10:24;;;;;;;1.50;1.20;;;6.30;98.20;;;;;;5276481;27;21011;-82
2024/04/23 06:12:53;;;;;;;1.60;1.40;;;6.50;98.20;;;;;;5290238;26;20539;-82
2024/04/23 06:15:21;;;;;;;1.53;1.30;;;6.70;98.20;;;;;;5273314;27;20598;-81
2024/04/23 06:17:50;;;;;;;1.60;1.30;;;6.90;98.20;;;;;;5291629;27;20612;-82
2024/04/23 06:20:16;;;;;;;1.57;1.30;;;7.10;98.20;;;;;;5275824;27;20488;-83
2024/04/23 06:22:48;;;;;;;1.50;1.30;;;7.30;98.20;;;;;;5285132;27;20490;-83
2024/04/23 06:25:14;;;;;;;1.60;1.40;;;7.50;98.20;;;;;;5275607;27;20485;-82
2024/04/23 06:27:43;;;;;;;1.57;1.30;;;7.60;98.20;;;;;;5291973;27;20526;-83
2024/04/23 06:30:10;;;;;;;1.50;1.20;;;7.80;98.20;;;;;;5268571;27;20598;-81
2024/04/23 06:32:42;;;;;;;1.50;1.30;;;7.90;98.20;;;;;;5253325;27;20504;-83
2024/04/23 06:35:09;;;;;;;1.57;1.20;;;8.10;98.20;;;;;;5269088;27;20961;-81
2024/04/23 06:37:39;;;;;;;1.50;1.20;;;8.30;98.20;;;;;;5290699;26;20571;-81
2024/04/23 06:40:08;;;;;;;1.50;1.30;;;8.30;98.20;;;;;;5267104;27;20529;-82
2024/04/23 06:42:37;;;;;;;1.50;1.20;;;8.40;98.20;;;;;;5283582;27;20571;-81
2024/04/23 06:45:03;;;;;;;1.50;1.10;;;8.60;98.20;;;;;;5276464;27;21013;-82
2024/04/23 06:47:31;;;;;;;1.60;1.30;;;8.80;98.20;;;;;;5288817;26;20562;-82
2024/04/23 06:50:00;;;;;;;1.60;1.30;;;9.00;98.20;;;;;;5268627;27;20522;-82
2024/04/23 06:52:28;;;;;;;1.60;1.20;;;9.10;98.20;;;;;;5288512;27;20965;-81
2024/04/23 06:54:54;;;;;;;1.50;1.10;;;9.30;98.20;;;;;;5276526;27;20472;-82
2024/04/23 06:57:23;;;;;;;1.50;1.10;;;9.50;98.20;;;;;;5276092;27;20495;-82
2024/04/23 06:59:48;;;;;;;1.50;1.10;;;9.70;98.20;;;;;;5278737;27;20332;-82
2024/04/23 07:02:17;;;;;;;1.53;1.17;;;9.90;98.20;;;;;;5283361;27;20507;-82
2024/04/23 07:04:43;;;;;;;1.50;1.10;;;10.00;98.20;;;;;;5282138;27;20242;-82
2024/04/23 07:07:14;;;;;;;1.50;1.10;;;10.20;98.20;;;;;;5283375;26;20971;-82
2024/04/23 07:09:40;;;;;;;1.50;1.10;;;10.30;98.20;;;;;;5282026;27;20237;-82
2024/04/23 07:12:09;;;;;;;1.50;1.10;;;10.50;98.20;;;;;;5279920;26;20609;-81
2024/04/23 07:14:34;;;;;;;1.50;1.10;;;10.60;98.20;;;;;;5278721;27;20351;-82
2024/04/23 07:17:03;;;;;;;1.50;1.10;;;10.70;98.20;;;;;;5274160;27;20503;-80
2024/04/23 07:19:29;;;;;;;1.50;1.00;;;10.70;98.20;;;;;;5282390;27;20361;-81
2024/04/23 07:21:57;;;;;;;1.50;1.07;;;10.90;98.20;;;;;;5268103;26;20503;-81
2024/04/23 07:24:25;;;;;;;1.50;1.10;;;11.00;98.20;;;;;;5280503;27;20297;-81
2024/04/23 07:26:54;;;;;;;1.50;1.00;;;11.20;98.20;;;;;;5273822;27;20558;-81
2024/04/23 07:29:20;;;;;;;1.50;1.10;;;11.30;98.20;;;;;;5283227;27;20490;-81
2024/04/23 07:31:48;;;;;;;1.50;1.10;;;11.40;98.20;;;;;;5271550;27;20616;-81
2024/04/23 07:34:14;;;;;;;1.50;1.10;;;11.50;98.20;;;;;;5287373;27;20597;-81
2024/04/23 07:36:42;;;;;;;1.80;1.30;;;11.50;98.20;;;;;;5270020;27;21227;-80
2024/04/23 07:39:08;;;;;;;1.50;1.00;;;11.60;98.20;;;;;;5288358;27;20308;-81
2024/04/23 07:41:39;;;;;;;1.60;1.30;;;11.80;98.20;;;;;;5258972;26;20989;-81
2024/04/23 07:44:08;;;;;;;1.50;1.03;;;11.90;97.90;;;;;;5281346;27;20776;-81
2024/04/23 07:46:34;;;;;;;1.50;1.00;;;12.00;97.20;;;;;;5267652;27;20507;-82
2024/04/23 07:49:02;;;;;;;1.50;1.10;;;12.10;96.60;;;;;;5290058;27;20561;-81
2024/04/23 07:51:30;;;;;;;1.50;1.03;;;12.20;96.80;;;;;;5263949;27;20652;-80
2024/04/23 07:53:59;;;;;;;1.50;1.10;;;12.30;95.40;;;;;;5289841;27;20511;-80
2024/04/23 07:56:25;;;;;;;1.50;1.10;;;12.40;94.70;;;;;;5267918;27;20965;-82
2024/04/23 07:58:57;;;;;;;1.50;1.00;;;12.40;93.60;;;;;;5286351;27;20485;-81
2024/04/23 08:01:23;;;;;;;1.50;1.00;;;12.50;94.70;;;;;;5269686;27;20272;-82
2024/04/23 08:03:51;;;;;;;1.50;1.00;;;12.60;94.20;;;;;;5289481;27;20532;-81
2024/04/23 08:06:20;;;;;;;1.50;1.00;;;12.70;93.70;;;;;;5262189;27;20640;-81
2024/04/23 08:08:46;;;;;;;1.50;1.00;;;12.70;93.60;;;;;;5286179;27;20542;-82
2024/04/23 08:11:14;;;;;;;1.50;1.00;;;12.80;93.00;;;;;;5262725;27;20499;-82
2024/04/23 08:13:40;;;;;;;1.50;1.00;;;12.90;93.80;;;;;;5284039;27;20272;-81
2024/04/23 08:16:12;;;;;;;1.50;1.10;;;13.10;92.90;;;;;;5257629;26;20480;-80
2024/04/23 08:18:38;;;;;;;1.60;1.27;;;13.30;91.00;;;;;;5280502;26;20238;-79
2024/04/23 08:21:10;;;;;;;1.47;0.90;;;13.40;91.60;;;;;;5266698;27;20579;-79
2024/04/23 08:23:36;;;;;;;1.50;0.90;;;13.50;90.70;;;;;;5292982;27;20468;-80
2024/04/23 08:26:09;;;;;;;1.50;0.90;;;13.50;88.40;;;;;;5258686;27;21096;-80
2024/04/23 08:28:35;;;;;;;1.50;0.90;;;13.60;89.90;;;;;;5281132;26;20296;-79
2024/04/23 08:31:03;;;;;;;1.50;1.00;;;13.70;89.60;;;;;;5260439;27;20480;-80
2024/04/23 08:33:34;;;;;;;1.50;1.00;;;13.80;90.20;;;;;;5289373;27;20969;-81
2024/04/23 08:36:02;;;;;;;1.50;1.10;;;13.90;90.30;;;;;;5259796;27;20486;-80
2024/04/23 08:38:34;;;;;;;1.47;0.90;;;13.90;92.20;;;;;;5297364;27;20528;-80
2024/04/23 08:41:03;;;;;;;1.47;0.90;;;14.00;91.20;;;;;;5258414;27;20909;-80
2024/04/23 08:43:31;;;;;;;1.50;1.00;;;14.10;88.80;;;;;;5288170;27;20530;-80
2024/04/23 08:46:01;;;;;;;1.50;1.10;;;14.10;88.70;;;;;;5255083;27;20485;-80
2024/04/23 08:48:28;;;;;;;1.50;0.90;;;13.90;86.90;;;;;;5288074;26;20496;-80
2024/04/23 08:50:59;;;;;;;1.43;0.90;;;13.80;85.90;;;;;;5256446;27;20473;-79
2024/04/23 08:53:27;;;;;;;1.47;0.93;;;13.90;89.00;;;;;;5293701;27;20473;-78
2024/04/23 08:55:59;;;;;;;1.50;0.90;;;14.10;89.50;;;;;;5252705;26;20592;-79
2024/04/23 08:58:26;;;;;;;1.43;0.90;;;14.10;86.20;;;;;;5257029;27;20561;-80
2024/04/23 09:00:59;;;;;;;1.50;0.90;;;13.90;87.50;;;;;;5256585;26;20782;-79
2024/04/23 09:03:32;;;;;;;1.50;1.00;;;13.70;87.70;;;;;;5340987;21;20554;-80
2024/04/23 09:06:04;;;;;;;1.47;1.00;;;13.60;87.30;;;;;;5371747;26;20536;-81
2024/04/23 09:08:32;;;;;;;1.40;0.90;;;13.50;85.70;;;;;;5361520;26;20548;-81
2024/04/23 09:11:01;;;;;;;1.50;1.00;;;13.30;85.70;;;;;;5371712;26;20476;-80
2024/04/23 09:13:28;;;;;;;1.50;1.00;;;13.00;87.60;;;;;;5384546;26;20480;-82
2024/04/23 09:15:57;;;;;;;1.47;0.97;;;12.80;87.50;;;;;;5374074;26;20476;-81
2024/04/23 09:18:23;;;;;;;1.50;1.00;;;13.00;89.50;;;;;;5375234;26;20587;-82
2024/04/23 09:20:51;;;;;;;2.17;1.87;;;13.30;88.90;;;;;;5376697;26;20489;-81
2024/04/23 09:23:20;;;;;;;1.47;0.97;;;13.50;88.10;;;;;;5372238;26;20478;-82
2024/04/23 09:25:50;;;;;;;1.50;1.00;;;13.80;86.10;;;;;;5367958;26;20468;-82
2024/04/23 09:28:20;;;;;;;1.50;0.93;;;14.10;83.50;;;;;;5356748;26;20932;-79
2024/04/23 09:30:49;;;;;;;1.47;0.97;;;14.30;79.70;;;;;;5379786;26;20564;-81
2024/04/23 09:33:22;;;;;;;1.50;0.90;;;14.40;75.20;;;;;;5377375;26;20531;-80
2024/04/23 09:36:02;;;;;;;1.40;0.90;;;14.60;76.90;;;;;;5369452;26;20517;-82
2024/04/23 09:38:33;;;;;;;1.50;1.00;;;14.80;80.00;;;;;;5373081;26;20476;-83
2024/04/23 09:41:03;;;;;;;1.47;0.90;;;15.00;78.60;;;;;;5370949;26;20470;-82
2024/04/23 09:43:29;;;;;;;1.50;0.90;;;15.10;77.80;;;;;;5379374;26;20573;-81
2024/04/23 09:45:57;;;;;;;1.47;0.90;;;14.90;74.90;;;;;;5359204;26;20478;-82
2024/04/23 09:48:28;;;;;;;1.47;0.90;;;14.70;73.90;;;;;;5381220;26;20275;-80
2024/04/23 09:51:02;;;;;;;1.47;0.90;;;14.60;73.60;;;;;;5357700;26;20532;-80
2024/04/23 09:53:32;;;;;;;1.50;0.90;;;14.80;76.60;;;;;;5367311;26;20480;-79
2024/04/23 09:56:02;;;;;;;1.47;0.90;;;15.10;79.20;;;;;;5354601;26;20905;-80
2024/04/23 09:58:28;;;;;;;1.47;0.90;;;15.20;78.40;;;;;;5359485;26;20457;-81
2024/04/23 10:00:58;;;;;;;1.50;0.90;;;15.50;76.80;;;;;;5365129;26;20561;-79
2024/04/23 10:03:25;;;;;;;1.50;0.90;;;15.70;75.10;;;;;;5353650;26;20358;-81
2024/04/23 10:05:56;;;;;;;1.47;0.90;;;15.80;70.80;;;;;;5357578;26;20520;-79
2024/04/23 10:08:28;;;;;;;1.43;0.90;;;15.80;71.20;;;;;;5374622;26;20525;-80
2024/04/23 10:11:01;;;;;;;1.50;0.90;;;15.70;71.10;;;;;;5347444;26;20481;-79
2024/04/23 10:13:32;;;;;;;1.50;0.90;;;15.80;71.80;;;;;;5375522;26;20476;-79
2024/04/23 10:16:05;;;;;;;1.47;0.90;;;15.90;71.30;;;;;;5359666;26;20858;-80
2024/04/23 10:18:40;;;;;;;1.47;0.90;;;16.00;69.80;;;;;;5369359;26;20525;-80
2024/04/23 10:21:14;;;;;;;1.50;0.90;;;16.10;72.50;;;;;;5350635;26;20490;-79
2024/04/23 10:23:40;;;;;;;1.43;0.90;;;16.20;70.90;;;;;;5343101;26;20549;-79
2024/04/23 10:26:13;;;;;;;1.50;0.90;;;16.40;73.60;;;;;;5370976;26;21119;-79
2024/04/23 10:28:40;;;;;;;1.43;0.90;;;16.50;70.70;;;;;;5372381;26;20662;-79
2024/04/23 10:31:10;;;;;;;1.50;0.90;;;16.40;70.70;;;;;;5367499;26;20482;-81
2024/04/23 10:33:37;;;;;;;1.50;1.00;;;16.10;70.40;;;;;;5355906;26;20468;-79
2024/04/23 10:36:08;;;;;;;1.50;1.00;;;15.70;68.50;;;;;;5368775;26;21039;-79
2024/04/23 10:38:36;;;;;;;1.47;1.00;;;15.60;73.70;;;;;;5364508;26;20485;-80
2024/04/23 10:41:09;;;;;;;1.47;0.90;;;15.60;73.90;;;;;;5367129;26;20476;-78
2024/04/23 10:43:38;;;;;;;1.47;0.90;;;15.90;74.20;;;;;;5345172;26;20523;-80
2024/04/23 10:46:07;;;;;;;1.43;0.90;;;16.10;72.00;;;;;;5356860;26;20465;-80
2024/04/23 10:48:36;;;;;;;1.47;0.90;;;16.40;72.60;;;;;;5379755;26;20522;-80
2024/04/23 10:51:29;;;;;;;1.43;0.90;;;16.70;69.40;;;;;;5382713;26;20469;-81
2024/04/23 10:53:59;;;;;;;1.50;0.90;;;17.00;69.00;;;;;;5381460;26;20469;-80
2024/04/23 10:56:26;;;;;;;1.47;0.87;;;17.30;69.20;;;;;;5365779;26;20540;-80
2024/04/23 10:59:31;;;;;;;1.50;0.90;;;17.50;69.60;;;;;;5381354;26;20566;-80
2024/04/23 11:02:01;;;;;;;1.50;0.90;;;17.70;68.10;;;;;;5359655;26;20513;-81
2024/04/23 11:04:27;;;;;;;1.50;0.90;;;17.60;67.00;;;;;;5379768;26;20942;-80
2024/04/23 11:07:04;;;;;;;1.47;0.90;;;17.80;69.10;;;;;;5366573;26;20550;-81
2024/04/23 11:09:34;;;;;;;1.50;0.90;;;17.90;68.80;;;;;;5376453;26;20464;-82
2024/04/23 11:12:02;;;;;;;1.50;0.90;;;18.00;68.90;;;;;;5371416;26;20566;-82
2024/04/23 11:14:35;;;;;;;1.50;0.90;;;18.30;70.00;;;;;;5385759;26;20491;-82
2024/04/23 11:17:04;;;;;;;1.50;1.00;;;18.40;68.10;;;;;;5374409;26;20504;-80
2024/04/23 11:19:40;;;;;;;1.50;0.90;;;18.50;65.90;;;;;;5374557;26;20520;-81
2024/04/23 11:22:13;;;;;;;1.47;0.90;;;18.60;65.50;;;;;;5376940;26;20612;-80
2024/04/23 11:24:43;;;;;;;1.43;0.90;;;18.60;67.30;;;;;;5382771;26;20503;-80
2024/04/23 11:27:12;;;;;;;1.47;0.90;;;18.60;65.10;;;;;;5368781;26;20540;-82
2024/04/23 11:29:42;;;;;;;1.50;0.90;;;18.60;66.90;;;;;;5378861;26;20488;-81
2024/04/23 11:32:11;;;;;;;1.43;0.90;;;18.60;66.30;;;;;;5372296;26;20505;-80
2024/04/23 11:34:38;;;;;;;1.47;0.90;;;18.60;66.60;;;;;;5378070;26;20881;-79
2024/04/23 11:37:06;;;;;;;1.47;0.90;;;18.50;64.20;;;;;;5372953;26;20557;-79
2024/04/23 11:39:33;;;;;;;1.50;0.90;;;18.60;67.10;;;;;;5378390;26;20644;-80
2024/04/23 11:42:02;;;;;;;1.50;0.90;;;18.70;67.60;;;;;;5374049;26;20488;-79
2024/04/23 11:44:27;;;;;;;1.50;0.90;;;18.80;66.10;;;;;;5386332;26;20529;-79
2024/04/23 11:46:59;;;;;;;1.50;0.90;;;18.90;64.10;;;;;;5371969;26;20748;-79
2024/04/23 11:49:25;;;;;;;1.50;0.90;;;19.10;68.30;;;;;;5381013;26;20741;-80
2024/04/23 11:51:56;;;;;;;1.50;1.00;;;19.10;65.30;;;;;;5364357;26;21150;-81
2024/04/23 11:54:24;;;;;;;1.50;1.20;;;19.00;67.40;;;;;;5376862;26;20539;-83
2024/04/23 11:56:53;;;;;;;3.50;2.80;;;19.00;64.90;;;;;;5374628;26;20566;-82
2024/04/23 11:59:22;;;;;;;1.47;0.90;;;19.30;68.60;;;;;;5383876;26;20460;-80
2024/04/23 12:01:50;;;;;;;1.47;0.90;;;19.40;67.60;;;;;;5374621;26;20589;-79
2024/04/23 12:04:21;;;;;;;1.43;0.90;;;19.50;65.00;;;;;;5386877;26;20480;-81
2024/04/23 12:06:52;;;;;;;1.47;0.80;;;19.60;67.90;;;;;;5374961;26;20481;-80
2024/04/23 12:09:18;;;;;;;1.47;0.90;;;19.60;66.10;;;;;;5374444;26;20691;-81
2024/04/23 12:11:48;;;;;;;1.50;0.90;;;19.30;64.60;;;;;;5348046;26;20547;-81
2024/04/23 12:14:13;;;;;;;1.43;0.90;;;18.90;63.80;;;;;;5361876;26;20542;-82
2024/04/23 12:16:44;;;;;;;1.47;0.90;;;18.40;64.20;;;;;;5365631;26;20564;-80
2024/04/23 12:19:10;;;;;;;1.50;0.90;;;18.10;66.00;;;;;;5363914;26;20235;-80
2024/04/23 12:21:42;;;;;;;1.50;0.90;;;17.70;67.50;;;;;;5347931;26;20497;-81
2024/04/23 12:24:13;;;;;;;1.50;0.90;;;17.40;67.80;;;;;;5381513;26;20531;-80
2024/04/23 12:26:42;;;;;;;1.50;0.90;;;17.00;68.10;;;;;;5367659;26;20500;-82
2024/04/23 12:29:08;;;;;;;1.50;0.90;;;16.70;68.20;;;;;;5377091;26;20474;-81
2024/04/23 12:31:37;;;;;;;1.50;0.90;;;16.40;69.50;;;;;;5357716;26;20488;-81
2024/04/23 12:34:03;;;;;;;1.50;1.20;;;16.20;68.30;;;;;;5385189;26;20503;-81
2024/04/23 12:36:31;;;;;;;1.47;0.90;;;15.90;70.40;;;;;;5368504;26;20492;-81
2024/04/23 12:39:09;;;;;;;1.50;1.00;;;15.70;70.50;;;;;;5375042;26;20549;-80
2024/04/23 12:41:38;;;;;;;1.50;0.90;;;15.60;71.10;;;;;;5360107;26;20527;-80
2024/04/23 12:44:12;;;;;;;1.43;0.90;;;15.40;70.30;;;;;;5376313;26;20528;-81
2024/04/23 12:46:40;;;;;;;1.50;0.90;;;15.40;71.60;;;;;;5380851;26;20591;-80
2024/04/23 12:49:06;;;;;;;1.50;0.90;;;15.50;71.30;;;;;;5372224;26;20476;-80
2024/04/23 12:51:35;;;;;;;1.47;0.90;;;15.80;72.20;;;;;;5375678;26;20492;-80
2024/04/23 12:54:08;;;;;;;1.50;0.97;;;15.60;68.00;;;;;;5383199;26;20591;-80
2024/04/23 12:56:37;;;;;;;1.50;0.90;;;15.40;69.30;;;;;;5361080;26;20620;-81
2024/04/23 12:59:04;;;;;;;1.50;1.03;;;15.30;69.60;;;;;;5371533;26;20477;-81
2024/04/23 13:01:33;;;;;;;1.50;0.90;;;15.00;69.30;;;;;;5361742;26;20542;-80
2024/04/23 13:03:58;;;;;;;1.43;0.90;;;14.90;70.10;;;;;;5374642;26;20481;-80
2024/04/23 13:06:28;;;;;;;1.50;1.00;;;14.80;71.20;;;;;;5346730;26;20486;-80
2024/04/23 13:08:54;;;;;;;1.50;0.97;;;14.80;72.00;;;;;;5340555;26;20235;-81
2024/04/23 13:11:25;;;;;;;1.50;1.00;;;14.70;72.50;;;;;;5360743;26;21034;-82